Terminal Aerodrome Forecast
Issued by NWS

Home | Current Version | Previous Version | Graphics & Text | Print | Product List | Glossary On
Versions: 1 2 3 4 5 6 7 8 9 10 11 12 13 14 15 16 17 18 19 20 21 22 23 24 25 26 27 28 29 30 31 32
140
FTUS43 KBIS 271249 AAA
TAFDIK
TAF AMD
KDIK 271249Z 2713/2812 10011KT 2SM -SN BR OVC035
     FM271400 08008KT P6SM OVC015
     FM271900 07011KT P6SM OVC010=

USA.gov is the U.S. government's official web portal to all federal, state and local government web resources and services.